Terminal Aerodrome Forecast
Issued by NWS Lake Charles, LA

Home | Current Version | Previous Version | Text Only | Print | Product List | Glossary On
Versions: 1 2 3 4 5 6 7 8 9 10 11 12 13 14 15 16
000
FTUS44 KLCH 241400 AAA
TAFBPT
TAF AMD
KBPT 241401Z 2414/2512 36007KT P6SM BKN025
     FM241600 36007KT P6SM VCSH BKN040
     FM250200 00000KT P6SM SCT060 BKN200=

USA.gov is the U.S. government's official web portal to all federal, state and local government web resources and services.